createdAt,value
2022-10-05T00:01:58.790Z,100.00
2022-10-05T00:04:29.195Z,100.00
2022-10-05T00:07:01.463Z,100.00
2022-10-05T00:09:33.316Z,100.00
2022-10-05T00:12:07.451Z,100.00
2022-10-05T00:14:37.877Z,100.00
2022-10-05T00:17:06.980Z,100.00
2022-10-05T00:19:38.542Z,100.00
2022-10-05T00:22:13.031Z,100.00
2022-10-05T00:24:43.010Z,100.00
2022-10-05T00:27:19.296Z,100.00
2022-10-05T00:29:48.737Z,100.00
2022-10-05T00:32:17.289Z,100.00
2022-10-05T00:34:46.265Z,100.00
2022-10-05T00:37:15.646Z,100.00
2022-10-05T00:39:46.183Z,100.00
2022-10-05T00:42:30.936Z,100.00
2022-10-05T00:45:08.060Z,100.00
2022-10-05T00:47:51.065Z,100.00
2022-10-05T00:50:42.426Z,100.00
2022-10-05T00:53:20.389Z,100.00
2022-10-05T00:56:00.592Z,100.00
2022-10-05T00:58:39.864Z,100.00
2022-10-05T01:01:13.344Z,100.00
2022-10-05T01:03:52.642Z,100.00
2022-10-05T01:06:30.381Z,100.00
2022-10-05T01:09:08.669Z,100.00
2022-10-05T01:11:47.382Z,100.00
2022-10-05T01:14:22.401Z,100.00
2022-10-05T01:16:57.539Z,100.00
2022-10-05T01:19:52.297Z,100.00
2022-10-05T01:22:34.026Z,100.00
2022-10-05T01:25:14.088Z,100.00
2022-10-05T01:27:55.715Z,100.00
2022-10-05T01:30:24.595Z,100.00
2022-10-05T01:33:00.407Z,100.00
2022-10-05T01:35:44.435Z,100.00
2022-10-05T01:38:39.351Z,100.00
2022-10-05T01:41:19.709Z,100.00
2022-10-05T01:43:52.576Z,100.00
2022-10-05T01:46:26.667Z,100.00
2022-10-05T01:49:04.654Z,100.00
2022-10-05T01:51:42.226Z,100.00
2022-10-05T01:54:22.734Z,100.00
2022-10-05T01:57:02.013Z,100.00
2022-10-05T01:59:44.582Z,100.00
2022-10-05T02:02:15.973Z,100.00
2022-10-05T02:05:07.478Z,100.00
2022-10-05T02:07:40.339Z,100.00
2022-10-05T02:10:19.552Z,100.00
2022-10-05T02:12:52.149Z,100.00
2022-10-05T02:15:27.086Z,100.00
2022-10-05T02:18:00.712Z,100.00
2022-10-05T02:20:31.439Z,100.00
2022-10-05T02:23:04.110Z,100.00
2022-10-05T02:25:36.533Z,100.00
2022-10-05T02:28:10.181Z,100.00
2022-10-05T02:30:45.460Z,100.00
2022-10-05T02:33:20.708Z,100.00
2022-10-05T02:35:49.012Z,100.00
2022-10-05T02:38:27.160Z,100.00
2022-10-05T02:41:03.389Z,100.00
2022-10-05T02:43:43.395Z,100.00
2022-10-05T02:46:23.250Z,100.00
2022-10-05T02:49:04.414Z,100.00
2022-10-05T02:51:43.063Z,100.00
2022-10-05T02:54:20.361Z,100.00
2022-10-05T02:56:58.279Z,100.00
2022-10-05T02:59:35.413Z,100.00
2022-10-05T03:02:13.657Z,100.00
2022-10-05T03:04:49.863Z,100.00
2022-10-05T03:07:24.931Z,100.00
2022-10-05T03:10:03.031Z,100.00
2022-10-05T03:12:44.006Z,100.00
2022-10-05T03:15:24.354Z,100.00
2022-10-05T03:18:05.345Z,100.00
2022-10-05T03:20:43.937Z,100.00
2022-10-05T03:23:23.186Z,100.00
2022-10-05T03:26:06.626Z,100.00
2022-10-05T03:28:45.294Z,100.00
2022-10-05T03:31:21.794Z,100.00
2022-10-05T03:33:57.947Z,100.00
2022-10-05T03:36:31.890Z,100.00
2022-10-05T03:39:07.625Z,100.00
2022-10-05T03:41:42.324Z,100.00
2022-10-05T03:44:26.114Z,100.00
2022-10-05T03:47:11.268Z,100.00
2022-10-05T03:49:54.175Z,100.00
2022-10-05T03:52:29.034Z,100.00
2022-10-05T03:55:02.928Z,100.00
2022-10-05T03:57:33.842Z,100.00
2022-10-05T04:00:06.359Z,100.00
2022-10-05T04:02:38.826Z,100.00
2022-10-05T04:05:16.705Z,100.00
2022-10-05T04:07:47.931Z,100.00
2022-10-05T04:10:23.825Z,100.00
2022-10-05T04:12:56.896Z,100.00
2022-10-05T04:15:31.092Z,100.00
2022-10-05T04:18:04.178Z,100.00
2022-10-05T04:20:41.192Z,100.00
2022-10-05T04:23:19.279Z,100.00
2022-10-05T04:25:52.786Z,100.00
2022-10-05T04:35:33.704Z,100.00
2022-10-05T04:38:25.053Z,100.00
2022-10-05T04:41:07.368Z,100.00
2022-10-05T04:43:47.920Z,100.00
2022-10-05T04:46:27.379Z,100.00
2022-10-05T04:49:14.702Z,100.00
2022-10-05T04:51:53.709Z,100.00
2022-10-05T04:54:34.405Z,100.00
2022-10-05T04:57:07.371Z,100.00
2022-10-05T05:00:01.910Z,100.00
2022-10-05T05:02:37.399Z,100.00
2022-10-05T05:06:17.203Z,100.00
2022-10-05T05:09:12.407Z,100.00
2022-10-05T05:12:25.999Z,100.00
2022-10-05T05:15:26.989Z,100.00
2022-10-05T05:18:45.190Z,100.00
2022-10-05T05:21:29.449Z,100.00
2022-10-05T05:24:07.551Z,100.00
2022-10-05T05:26:52.720Z,100.00
2022-10-05T05:29:28.933Z,100.00
2022-10-05T05:31:59.929Z,100.00
2022-10-05T05:38:32.295Z,100.00
2022-10-05T05:41:09.822Z,100.00
2022-10-05T05:43:53.193Z,100.00
2022-10-05T05:46:51.250Z,100.00
2022-10-05T05:49:19.514Z,100.00
2022-10-05T05:51:52.645Z,100.00
2022-10-05T05:54:29.557Z,100.00
2022-10-05T05:57:09.104Z,100.00
2022-10-05T05:59:53.341Z,100.00
2022-10-05T06:02:26.182Z,100.00
2022-10-05T06:04:59.859Z,100.00
2022-10-05T06:07:31.964Z,100.00
2022-10-05T06:10:04.961Z,100.00
2022-10-05T06:12:36.350Z,100.00
2022-10-05T06:15:18.575Z,100.00
2022-10-05T06:17:52.907Z,100.00
2022-10-05T06:20:26.850Z,100.00
2022-10-05T06:23:00.498Z,100.00
2022-10-05T06:25:39.260Z,100.00
2022-10-05T06:28:11.636Z,100.00
2022-10-05T06:30:50.710Z,100.00
2022-10-05T06:33:30.836Z,100.00
2022-10-05T06:36:16.446Z,100.00
2022-10-05T06:39:03.334Z,100.00
2022-10-05T06:41:44.749Z,100.00
2022-10-05T06:44:17.966Z,100.00
2022-10-05T06:46:57.071Z,100.00
2022-10-05T06:49:30.696Z,100.00
2022-10-05T06:52:08.383Z,100.00
2022-10-05T06:54:47.157Z,100.00
2022-10-05T06:57:30.850Z,100.00
2022-10-05T07:00:02.793Z,100.00
2022-10-05T07:02:40.488Z,100.00
2022-10-05T07:05:47.429Z,100.00
2022-10-05T07:08:20.780Z,100.00
2022-10-05T07:11:04.195Z,100.00
2022-10-05T07:14:01.152Z,100.00
2022-10-05T07:16:41.607Z,100.00
2022-10-05T07:19:24.029Z,100.00
2022-10-05T07:22:08.959Z,100.00
2022-10-05T08:08:32.732Z,84.36
2022-10-05T08:24:54.175Z,78.89
2022-10-05T08:27:29.630Z,77.29
2022-10-05T08:30:02.461Z,76.79
2022-10-05T08:32:34.874Z,73.37
2022-10-05T08:36:53.673Z,73.61
2022-10-05T08:38:30.806Z,74.75
2022-10-05T08:41:37.643Z,72.59
2022-10-05T08:45:23.203Z,70.16
2022-10-05T08:52:26.210Z,68.91
2022-10-05T08:56:33.991Z,66.16
2022-10-05T08:59:05.703Z,68.53
2022-10-05T09:01:50.182Z,65.79
2022-10-05T09:04:30.308Z,66.64
2022-10-05T09:07:22.481Z,66.39
2022-10-05T09:10:27.643Z,68.34
2022-10-05T09:13:28.302Z,66.37
2022-10-05T09:16:37.148Z,63.74
2022-10-05T09:19:36.337Z,63.04
2022-10-05T09:22:15.896Z,65.63
2022-10-05T09:25:15.952Z,66.69
2022-10-05T09:28:12.751Z,62.61
2022-10-05T09:30:58.018Z,63.29
2022-10-05T09:33:54.915Z,62.94
2022-10-05T09:36:56.121Z,61.10
2022-10-05T09:40:25.147Z,60.25
2022-10-05T09:43:03.785Z,61.26
2022-10-05T09:45:49.325Z,60.33
2022-10-05T09:52:13.915Z,59.73
2022-10-05T09:55:20.268Z,57.96
2022-10-05T09:58:12.250Z,54.79
2022-10-05T10:04:18.889Z,57.47
2022-10-05T10:07:53.074Z,54.45
2022-10-05T10:10:57.819Z,55.34
2022-10-05T10:14:08.484Z,53.73
2022-10-05T10:16:55.053Z,49.92
2022-10-05T10:20:08.060Z,52.17
2022-10-05T10:26:46.845Z,53.31
2022-10-05T10:30:08.753Z,51.43
2022-10-05T10:33:12.249Z,56.73
2022-10-05T10:35:51.400Z,53.17
2022-10-05T10:38:41.639Z,53.04
2022-10-05T10:41:42.074Z,48.14
2022-10-05T10:44:53.194Z,51.05
2022-10-05T10:47:41.403Z,49.41
2022-10-05T10:50:45.330Z,53.52
2022-10-05T10:53:27.423Z,50.53
2022-10-05T10:56:10.333Z,49.59
2022-10-05T10:59:05.920Z,51.35
2022-10-05T11:01:37.124Z,49.67
2022-10-05T11:04:32.277Z,49.71
2022-10-05T11:07:24.219Z,50.14
2022-10-05T11:10:57.624Z,50.08
2022-10-05T11:13:44.217Z,51.76
2022-10-05T11:16:45.014Z,53.35
2022-10-05T11:19:40.026Z,50.60
2022-10-05T11:30:02.159Z,49.64
2022-10-05T11:33:01.878Z,54.00
2022-10-05T11:36:30.381Z,52.62
2022-10-05T11:39:39.192Z,49.88
2022-10-05T11:43:42.061Z,52.20
2022-10-05T11:52:11.237Z,52.84
2022-10-05T11:55:16.667Z,52.62
2022-10-05T11:57:51.823Z,51.45
2022-10-05T12:00:23.438Z,52.12
2022-10-05T12:03:21.350Z,52.57
2022-10-05T12:06:05.742Z,52.96
2022-10-05T12:08:49.840Z,52.25
2022-10-05T12:11:39.124Z,51.95
2022-10-05T12:14:18.246Z,51.52
2022-10-05T12:16:54.071Z,53.57
2022-10-05T12:19:34.003Z,52.96
2022-10-05T12:22:15.535Z,51.46
2022-10-05T12:25:04.275Z,53.30
2022-10-05T12:27:46.948Z,51.95
2022-10-05T12:30:18.849Z,55.16
2022-10-05T12:33:02.212Z,55.08
2022-10-05T12:35:54.257Z,51.47
2022-10-05T12:38:29.222Z,51.63
2022-10-05T12:41:08.804Z,54.60
2022-10-05T12:43:49.895Z,52.36
2022-10-05T12:46:28.000Z,52.57
2022-10-05T12:49:18.474Z,52.99
2022-10-05T12:51:53.844Z,51.73
2022-10-05T12:54:31.257Z,51.72
2022-10-05T12:57:02.878Z,52.01
2022-10-05T12:59:41.252Z,51.31
2022-10-05T13:02:20.017Z,51.44
2022-10-05T13:04:56.161Z,53.41
2022-10-05T13:07:38.703Z,51.74
2022-10-05T13:19:53.855Z,51.85
2022-10-05T13:22:47.216Z,55.84
2022-10-05T13:25:26.982Z,53.22
2022-10-05T13:28:20.832Z,49.98
2022-10-05T13:30:59.378Z,48.28
2022-10-05T13:43:44.077Z,53.89
2022-10-05T13:46:19.469Z,48.79
2022-10-05T13:48:58.166Z,48.78
2022-10-05T13:51:30.698Z,51.51
2022-10-05T13:54:13.471Z,51.83
2022-10-05T13:56:48.410Z,49.08
2022-10-05T13:59:30.067Z,50.10
2022-10-05T14:02:03.532Z,50.64
2022-10-05T14:04:45.214Z,48.57
2022-10-05T14:16:20.458Z,50.35
2022-10-05T14:18:55.290Z,48.63
2022-10-05T14:21:25.365Z,49.47
2022-10-05T14:23:55.147Z,52.97
2022-10-05T14:26:37.245Z,50.00
2022-10-05T14:29:18.636Z,50.52
2022-10-05T14:31:55.167Z,49.65
2022-10-05T14:34:45.139Z,49.05
2022-10-05T14:37:20.751Z,49.10
2022-10-05T14:39:52.013Z,49.93
2022-10-05T14:42:21.317Z,50.51
2022-10-05T14:45:00.231Z,52.39
2022-10-05T14:47:34.426Z,51.54
2022-10-05T14:50:16.910Z,49.71
2022-10-05T14:52:51.913Z,49.38
2022-10-05T14:55:40.019Z,49.88
2022-10-05T14:58:24.297Z,51.64
2022-10-05T15:00:57.640Z,52.20
2022-10-05T15:03:45.771Z,54.41
2022-10-05T15:06:25.922Z,52.00
2022-10-05T15:09:17.668Z,51.14
2022-10-05T15:11:50.640Z,53.70
2022-10-05T15:14:23.306Z,52.98
2022-10-05T15:17:29.111Z,53.62
2022-10-05T15:20:05.225Z,53.43
2022-10-05T15:22:42.856Z,52.51
2022-10-05T15:25:16.260Z,52.84
2022-10-05T15:27:58.277Z,53.35
2022-10-05T15:30:26.350Z,56.76
2022-10-05T15:33:15.624Z,54.83
2022-10-05T15:36:00.786Z,54.76
2022-10-05T15:38:33.449Z,56.54
2022-10-05T15:41:09.530Z,56.30
2022-10-05T15:43:47.862Z,56.56
2022-10-05T15:46:23.514Z,55.07
2022-10-05T15:49:05.365Z,57.35
2022-10-05T15:51:45.560Z,56.89
2022-10-05T15:54:44.112Z,56.19
2022-10-05T15:57:26.385Z,58.27
2022-10-05T16:00:02.115Z,58.96
2022-10-05T16:02:38.587Z,58.92
2022-10-05T16:05:41.232Z,58.97
2022-10-05T16:08:37.858Z,59.38
2022-10-05T16:11:18.970Z,61.85
2022-10-05T16:14:00.469Z,61.05
2022-10-05T16:16:51.101Z,61.72
2022-10-05T16:19:55.419Z,62.15
2022-10-05T16:23:12.290Z,62.33
2022-10-05T16:26:27.538Z,62.33
2022-10-05T16:31:14.138Z,63.12
2022-10-05T16:34:00.325Z,64.26
2022-10-05T16:37:34.352Z,65.54
2022-10-05T16:50:23.943Z,73.72
2022-10-05T16:52:58.211Z,74.67
2022-10-05T18:30:07.949Z,88.06
2022-10-05T18:32:47.292Z,87.25
2022-10-05T18:35:20.788Z,87.70
2022-10-05T18:45:38.895Z,89.63
2022-10-05T18:49:04.620Z,89.15
2022-10-05T18:51:55.800Z,88.27
2022-10-05T19:34:44.885Z,88.60
2022-10-05T19:37:26.780Z,88.03
2022-10-05T19:39:59.176Z,87.74
2022-10-05T19:42:50.509Z,86.52
2022-10-05T19:48:22.255Z,85.12
2022-10-05T19:50:58.095Z,87.50
2022-10-05T19:58:57.686Z,88.12
2022-10-05T20:02:03.794Z,87.81
2022-10-05T20:04:36.793Z,87.29
2022-10-05T20:07:07.034Z,87.46
2022-10-05T20:09:55.067Z,89.20
2022-10-05T20:12:23.908Z,87.92
2022-10-05T20:15:26.687Z,88.17
2022-10-05T20:18:12.327Z,87.67
2022-10-05T20:20:45.860Z,87.66
2022-10-05T20:23:28.158Z,87.46
2022-10-05T20:26:13.995Z,87.22
2022-10-05T20:28:44.612Z,87.09
2022-10-05T20:31:14.656Z,84.63
2022-10-05T20:33:42.743Z,82.95
2022-10-05T21:32:08.746Z,72.49
